createdAt,value
2022-07-26T00:00:33.388Z,27.00
2022-07-26T00:03:18.700Z,27.00
2022-07-26T00:06:04.270Z,27.00
2022-07-26T00:08:49.762Z,27.00
2022-07-26T00:11:35.354Z,27.00
2022-07-26T00:14:20.695Z,27.00
2022-07-26T00:17:06.161Z,27.00
2022-07-26T00:20:10.046Z,27.00
2022-07-26T00:23:33.016Z,27.00
2022-07-26T00:26:36.887Z,26.90
2022-07-26T00:29:22.197Z,26.90
2022-07-26T00:32:07.578Z,26.80
2022-07-26T00:34:53.111Z,26.80
2022-07-26T00:37:39.123Z,26.70
2022-07-26T00:40:24.909Z,26.70
2022-07-26T00:43:10.498Z,26.70
2022-07-26T00:45:56.081Z,26.70
2022-07-26T00:48:41.157Z,26.70
2022-07-26T00:51:26.586Z,26.60
2022-07-26T00:54:11.880Z,26.50
2022-07-26T00:56:57.309Z,26.50
2022-07-26T00:59:43.013Z,26.40
2022-07-26T01:02:28.299Z,26.40
2022-07-26T01:05:13.891Z,26.40
2022-07-26T01:07:59.406Z,26.50
2022-07-26T01:10:44.802Z,26.40
2022-07-26T01:13:34.944Z,26.40
2022-07-26T01:16:20.976Z,26.50
2022-07-26T01:19:06.379Z,26.50
2022-07-26T01:21:51.895Z,26.50
2022-07-26T01:24:37.326Z,26.40
2022-07-26T01:27:22.796Z,26.40
2022-07-26T01:30:11.074Z,26.30
2022-07-26T01:32:56.689Z,26.20
2022-07-26T01:35:42.107Z,26.30
2022-07-26T01:38:28.559Z,26.20
2022-07-26T01:41:14.059Z,26.10
2022-07-26T01:43:59.184Z,26.10
2022-07-26T01:46:44.661Z,26.10
2022-07-26T01:49:30.121Z,26.10
2022-07-26T01:52:15.572Z,26.00
2022-07-26T01:55:01.251Z,26.00
2022-07-26T01:57:46.760Z,25.90
2022-07-26T02:00:32.535Z,26.00
2022-07-26T02:03:17.781Z,26.10
2022-07-26T02:06:04.875Z,26.10
2022-07-26T02:08:50.627Z,25.90
2022-07-26T02:11:36.022Z,26.00
2022-07-26T02:14:25.694Z,26.00
2022-07-26T02:17:13.483Z,25.90
2022-07-26T02:19:59.089Z,25.90
2022-07-26T02:22:44.506Z,25.90
2022-07-26T02:25:30.048Z,25.90
2022-07-26T02:28:16.162Z,25.80
2022-07-26T02:31:01.528Z,25.80
2022-07-26T02:33:46.807Z,25.60
2022-07-26T02:36:32.093Z,25.60
2022-07-26T02:39:17.776Z,25.60
2022-07-26T02:42:03.796Z,25.40
2022-07-26T02:44:49.036Z,25.40
2022-07-26T02:47:34.540Z,25.40
2022-07-26T02:50:21.107Z,25.40
2022-07-26T02:53:06.173Z,25.50
2022-07-26T02:55:51.722Z,25.50
2022-07-26T02:58:37.732Z,25.50
2022-07-26T03:01:22.801Z,25.40
2022-07-26T03:04:08.285Z,25.40
2022-07-26T03:06:53.930Z,25.50
2022-07-26T03:09:39.277Z,25.50
2022-07-26T03:12:25.467Z,25.40
2022-07-26T03:15:11.643Z,25.40
2022-07-26T03:17:56.834Z,25.40
2022-07-26T03:20:42.196Z,25.30
2022-07-26T03:23:27.705Z,25.20
2022-07-26T03:26:13.147Z,25.30
2022-07-26T03:28:58.388Z,25.30
2022-07-26T03:31:43.897Z,25.30
2022-07-26T03:34:29.246Z,25.30
2022-07-26T03:37:14.660Z,25.30
2022-07-26T03:40:00.102Z,25.30
2022-07-26T03:42:46.749Z,25.30
2022-07-26T03:45:31.911Z,25.30
2022-07-26T03:48:17.269Z,25.30
2022-07-26T03:51:02.813Z,25.20
2022-07-26T03:53:48.295Z,25.20
2022-07-26T03:56:33.918Z,25.10
2022-07-26T03:59:19.013Z,25.20
2022-07-26T04:02:04.718Z,25.10
2022-07-26T04:04:49.949Z,25.20
2022-07-26T04:07:52.424Z,25.20
2022-07-26T04:10:38.629Z,25.10
2022-07-26T04:13:24.404Z,25.10
2022-07-26T04:16:09.815Z,25.20
2022-07-26T04:18:55.765Z,25.20
2022-07-26T04:21:41.736Z,25.10
2022-07-26T04:24:27.064Z,25.20
2022-07-26T04:27:12.653Z,25.20
2022-07-26T04:29:57.961Z,25.20
2022-07-26T04:32:45.884Z,25.10
2022-07-26T04:35:33.238Z,25.20
2022-07-26T04:38:18.745Z,25.20
2022-07-26T04:41:04.316Z,25.20
2022-07-26T04:43:49.677Z,25.20
2022-07-26T04:46:35.022Z,25.20
2022-07-26T04:49:20.406Z,25.20
2022-07-26T04:52:05.915Z,25.30
2022-07-26T04:54:51.322Z,25.40
2022-07-26T04:57:37.273Z,25.50
2022-07-26T05:00:25.045Z,25.60
2022-07-26T05:03:10.530Z,25.70
2022-07-26T05:05:56.023Z,25.80
2022-07-26T05:08:43.260Z,25.90
2022-07-26T05:11:28.495Z,25.90
2022-07-26T05:14:13.845Z,26.00
2022-07-26T05:16:59.848Z,26.00
2022-07-26T05:19:54.554Z,26.10
2022-07-26T05:22:40.773Z,26.10
2022-07-26T05:25:26.475Z,26.20
2022-07-26T05:28:11.759Z,26.20
2022-07-26T05:30:57.265Z,26.10
2022-07-26T05:33:42.454Z,25.70
2022-07-26T05:36:27.855Z,25.60
2022-07-26T05:39:16.029Z,25.40
2022-07-26T05:42:01.479Z,25.20
2022-07-26T05:44:46.918Z,25.10
2022-07-26T05:47:32.699Z,25.00
2022-07-26T05:50:18.440Z,24.90
2022-07-26T05:53:03.839Z,24.80
2022-07-26T05:55:49.442Z,24.80
2022-07-26T05:58:34.980Z,24.90
2022-07-26T06:01:20.231Z,24.90
2022-07-26T06:04:06.274Z,24.90
2022-07-26T06:06:52.863Z,24.80
2022-07-26T06:09:38.328Z,24.80
2022-07-26T06:12:23.771Z,24.60
2022-07-26T06:15:15.336Z,24.50
2022-07-26T06:18:01.384Z,24.20
2022-07-26T06:20:47.825Z,24.50
2022-07-26T06:23:34.676Z,24.60
2022-07-26T06:26:20.817Z,24.60
2022-07-26T06:29:06.071Z,24.60
2022-07-26T06:31:51.905Z,24.60
2022-07-26T06:34:37.204Z,24.70
2022-07-26T06:37:22.647Z,24.60
2022-07-26T06:40:09.731Z,24.70
2022-07-26T06:42:54.842Z,24.60
2022-07-26T06:45:40.513Z,24.20
2022-07-26T06:48:25.762Z,23.90
2022-07-26T06:51:11.351Z,23.70
2022-07-26T06:53:56.787Z,23.70
2022-07-26T06:56:46.073Z,23.70
2022-07-26T06:59:31.510Z,23.70
2022-07-26T07:02:16.881Z,23.60
2022-07-26T07:05:03.748Z,23.50
2022-07-26T07:07:49.365Z,23.40
2022-07-26T07:10:34.834Z,23.40
2022-07-26T07:13:20.461Z,23.20
2022-07-26T07:16:06.299Z,23.30
2022-07-26T07:18:51.527Z,23.30
2022-07-26T07:21:36.988Z,23.50
2022-07-26T07:24:23.389Z,23.40
2022-07-26T07:27:09.290Z,23.20
2022-07-26T07:29:56.141Z,23.10
2022-07-26T07:32:41.361Z,23.20
2022-07-26T07:35:31.865Z,23.20
2022-07-26T07:38:17.957Z,23.20
2022-07-26T07:41:04.299Z,23.30
2022-07-26T07:43:49.726Z,23.50
2022-07-26T07:46:35.038Z,23.30
2022-07-26T07:49:20.567Z,23.30
2022-07-26T07:52:06.527Z,23.30
2022-07-26T07:54:51.765Z,23.50
2022-07-26T07:57:37.403Z,23.90
2022-07-26T08:00:27.064Z,23.90
2022-07-26T08:03:12.839Z,23.70
2022-07-26T08:06:05.548Z,24.00
2022-07-26T08:08:51.077Z,24.30
2022-07-26T08:11:36.624Z,24.30
2022-07-26T08:14:27.037Z,24.50
2022-07-26T08:17:12.391Z,24.40
2022-07-26T08:20:00.094Z,24.50
2022-07-26T08:22:46.403Z,24.40
2022-07-26T08:25:31.921Z,24.40
2022-07-26T08:28:37.790Z,24.20
2022-07-26T08:31:23.327Z,24.00
2022-07-26T08:34:08.622Z,24.20
2022-07-26T08:37:15.569Z,24.30
2022-07-26T08:39:59.743Z,24.30
2022-07-26T08:42:56.684Z,24.00
2022-07-26T08:45:42.528Z,24.00
2022-07-26T08:48:29.038Z,24.10
2022-07-26T08:51:16.048Z,24.00
2022-07-26T08:54:05.664Z,24.30
2022-07-26T08:56:53.429Z,24.60
2022-07-26T08:59:39.090Z,24.70
2022-07-26T09:02:40.714Z,24.80
2022-07-26T09:05:35.223Z,24.90
2022-07-26T09:08:26.687Z,25.20
2022-07-26T09:11:24.403Z,25.20
2022-07-26T09:14:10.097Z,25.00
2022-07-26T09:16:59.879Z,25.10
2022-07-26T09:19:46.475Z,25.40
2022-07-26T09:22:31.703Z,25.60
2022-07-26T09:25:22.077Z,25.40
2022-07-26T09:28:29.503Z,25.40
2022-07-26T09:31:22.924Z,25.70
2022-07-26T09:34:08.840Z,26.10
2022-07-26T09:36:55.314Z,26.20
2022-07-26T09:39:58.802Z,26.10
2022-07-26T09:42:55.325Z,26.00
2022-07-26T09:45:40.862Z,25.50
2022-07-26T09:48:36.506Z,25.90
2022-07-26T09:51:38.488Z,26.30
2022-07-26T09:54:30.021Z,26.30
2022-07-26T09:57:20.668Z,26.00
2022-07-26T10:00:07.857Z,25.80
2022-07-26T10:02:54.323Z,25.90
2022-07-26T10:05:40.253Z,26.10
2022-07-26T10:08:25.737Z,26.70
2022-07-26T10:11:11.706Z,26.50
2022-07-26T10:13:57.965Z,26.40
2022-07-26T10:16:43.289Z,26.50
2022-07-26T10:19:45.846Z,26.50
2022-07-26T10:22:44.136Z,26.90
2022-07-26T10:25:32.202Z,27.00
2022-07-26T10:28:29.365Z,26.90
2022-07-26T10:31:21.226Z,26.80
2022-07-26T10:34:08.131Z,26.80
2022-07-26T10:37:05.502Z,27.30
2022-07-26T10:40:14.835Z,27.80
2022-07-26T10:43:39.711Z,27.70
2022-07-26T10:46:19.984Z,27.30
2022-07-26T10:49:09.104Z,27.00
2022-07-26T10:52:06.791Z,27.00
2022-07-26T10:55:01.025Z,26.80
2022-07-26T10:57:48.388Z,27.00
2022-07-26T11:00:34.667Z,26.90
2022-07-26T11:03:21.156Z,27.30
2022-07-26T11:06:12.797Z,27.60
2022-07-26T11:08:58.275Z,27.70
2022-07-26T11:11:46.880Z,27.70
2022-07-26T11:14:32.457Z,27.50
2022-07-26T11:17:25.224Z,27.20
2022-07-26T11:20:11.140Z,27.10
2022-07-26T11:22:56.423Z,27.10
2022-07-26T11:25:41.659Z,27.00
2022-07-26T11:28:27.139Z,26.80
2022-07-26T11:31:15.716Z,26.80
2022-07-26T11:34:03.012Z,27.20
2022-07-26T11:36:50.107Z,27.20
2022-07-26T11:39:36.307Z,27.00
2022-07-26T11:42:21.955Z,26.80
2022-07-26T11:45:10.459Z,26.70
2022-07-26T11:47:58.766Z,26.70
2022-07-26T11:50:46.845Z,26.70
2022-07-26T11:53:37.229Z,26.60
2022-07-26T11:56:23.322Z,26.70
2022-07-26T11:59:13.769Z,27.30
2022-07-26T12:02:00.270Z,27.90
2022-07-26T12:04:45.800Z,28.10
2022-07-26T12:07:31.692Z,27.80
2022-07-26T12:10:17.158Z,27.80
2022-07-26T12:13:14.312Z,27.80
2022-07-26T12:15:59.848Z,27.40
2022-07-26T12:18:51.656Z,27.20
2022-07-26T12:21:41.881Z,27.90
2022-07-26T12:24:39.926Z,28.40
2022-07-26T12:27:34.562Z,29.30
2022-07-26T12:30:20.273Z,29.90
2022-07-26T12:33:05.821Z,29.90
2022-07-26T12:35:51.206Z,30.00
2022-07-26T12:38:40.712Z,29.90
2022-07-26T12:41:37.828Z,30.10
2022-07-26T12:44:23.680Z,30.40
2022-07-26T12:47:09.153Z,30.30
2022-07-26T12:49:54.923Z,30.90
2022-07-26T12:52:40.777Z,30.90
2022-07-26T12:55:26.347Z,30.30
2022-07-26T12:58:11.834Z,30.10
2022-07-26T13:00:57.473Z,30.20
2022-07-26T13:03:46.067Z,30.40
2022-07-26T13:06:32.890Z,30.10
2022-07-26T13:09:18.475Z,30.20
2022-07-26T13:12:05.638Z,30.00
2022-07-26T13:14:51.363Z,29.60
2022-07-26T13:17:36.882Z,29.80
2022-07-26T13:20:22.122Z,29.80
2022-07-26T13:23:13.726Z,29.60
2022-07-26T13:25:59.514Z,29.70
2022-07-26T13:28:44.768Z,29.80
2022-07-26T13:31:35.132Z,29.90
2022-07-26T13:34:22.965Z,29.50
2022-07-26T13:37:08.713Z,29.60
2022-07-26T13:39:54.232Z,29.70
2022-07-26T13:42:39.836Z,29.60
2022-07-26T13:45:25.112Z,29.60
2022-07-26T13:48:14.362Z,29.20
2022-07-26T13:50:59.659Z,29.10
2022-07-26T13:53:54.751Z,29.50
2022-07-26T13:56:42.696Z,30.00
2022-07-26T13:59:28.665Z,29.90
2022-07-26T14:02:13.951Z,29.40
2022-07-26T14:04:59.128Z,29.20
2022-07-26T14:07:44.487Z,29.30
2022-07-26T14:10:30.206Z,29.70
2022-07-26T14:13:15.412Z,30.10
2022-07-26T14:16:00.847Z,30.10
2022-07-26T14:18:46.454Z,29.90
2022-07-26T14:21:38.615Z,29.70
2022-07-26T14:24:34.027Z,29.80
2022-07-26T14:27:19.310Z,30.40
2022-07-26T14:30:05.717Z,30.60
2022-07-26T14:32:51.482Z,30.70
2022-07-26T14:35:36.775Z,30.90
2022-07-26T14:38:26.793Z,31.10
2022-07-26T14:41:15.640Z,31.10
2022-07-26T14:44:02.182Z,31.00
2022-07-26T14:46:47.542Z,31.10
2022-07-26T14:49:32.728Z,31.10
2022-07-26T14:52:17.961Z,31.00
2022-07-26T14:55:04.273Z,31.20
2022-07-26T14:57:49.510Z,31.40
2022-07-26T15:00:34.935Z,31.30
2022-07-26T15:03:20.608Z,31.60
2022-07-26T15:06:05.996Z,31.70
2022-07-26T15:08:51.448Z,31.50
2022-07-26T15:11:36.818Z,30.80
2022-07-26T15:14:22.215Z,30.20
2022-07-26T15:17:07.640Z,29.90
2022-07-26T15:19:52.930Z,30.00
2022-07-26T15:22:38.431Z,29.80
2022-07-26T15:25:24.287Z,29.80
2022-07-26T15:28:09.470Z,29.70
2022-07-26T15:30:55.039Z,29.40
2022-07-26T15:33:40.448Z,29.20
2022-07-26T15:36:25.811Z,29.10
2022-07-26T15:39:18.611Z,29.30
2022-07-26T15:42:07.849Z,29.70
2022-07-26T15:44:54.777Z,29.80
2022-07-26T15:48:03.334Z,29.80
2022-07-26T15:50:48.679Z,30.10
2022-07-26T15:53:35.574Z,30.30
2022-07-26T15:56:20.823Z,30.60
2022-07-26T15:59:09.185Z,30.70
2022-07-26T16:01:54.534Z,30.50
2022-07-26T16:04:39.800Z,30.60
2022-07-26T16:07:25.321Z,30.60
2022-07-26T16:10:12.534Z,30.80
2022-07-26T16:12:59.192Z,30.90
2022-07-26T16:15:45.131Z,30.80
2022-07-26T16:18:30.249Z,30.80
2022-07-26T16:21:15.671Z,30.40
2022-07-26T16:24:06.485Z,30.00
2022-07-26T16:26:53.202Z,29.70
2022-07-26T16:29:38.291Z,29.70
2022-07-26T16:32:23.587Z,29.80
2022-07-26T16:35:09.841Z,30.00
2022-07-26T16:37:55.139Z,30.00
2022-07-26T16:40:40.430Z,29.80
2022-07-26T16:43:25.734Z,29.70
2022-07-26T16:46:11.270Z,29.60
2022-07-26T16:48:56.678Z,29.70
2022-07-26T16:51:42.025Z,29.80
2022-07-26T16:54:27.402Z,29.70
2022-07-26T16:57:12.727Z,29.80
2022-07-26T16:59:58.215Z,30.20
2022-07-26T17:02:43.746Z,30.30
2022-07-26T17:05:29.158Z,29.90
2022-07-26T17:08:14.901Z,29.50
2022-07-26T17:11:00.243Z,29.50
2022-07-26T17:13:45.743Z,29.50
2022-07-26T17:16:31.659Z,29.50
2022-07-26T17:19:17.153Z,29.60
2022-07-26T17:22:02.449Z,29.40
2022-07-26T17:24:48.327Z,29.20
2022-07-26T17:27:35.369Z,29.20
2022-07-26T17:30:20.698Z,28.90
2022-07-26T17:33:06.257Z,29.00
2022-07-26T17:35:51.706Z,29.00
2022-07-26T17:38:37.032Z,29.00
2022-07-26T17:41:32.499Z,29.00
2022-07-26T17:44:19.065Z,28.80
2022-07-26T17:47:05.406Z,28.60
2022-07-26T17:53:15.587Z,27.80
2022-07-26T17:56:05.326Z,27.50
2022-07-26T17:58:50.652Z,27.30
2022-07-26T18:01:36.233Z,27.40
2022-07-26T18:04:21.481Z,27.40
2022-07-26T18:07:08.484Z,27.10
2022-07-26T18:09:54.006Z,27.20
2022-07-26T18:12:39.366Z,27.40
2022-07-26T18:15:24.587Z,27.60
2022-07-26T18:18:10.068Z,27.70
2022-07-26T18:20:55.468Z,27.80
2022-07-26T18:23:54.785Z,27.80
2022-07-26T18:26:46.095Z,28.00
2022-07-26T18:29:31.597Z,28.00
2022-07-26T18:32:16.859Z,28.10
2022-07-26T18:35:02.392Z,28.10
2022-07-26T18:37:47.727Z,28.10
2022-07-26T18:40:33.548Z,28.10
2022-07-26T18:43:18.883Z,28.10
2022-07-26T18:46:06.107Z,28.00
2022-07-26T18:48:52.608Z,27.90
2022-07-26T18:51:40.941Z,27.90
2022-07-26T18:54:26.020Z,27.90
2022-07-26T18:57:11.898Z,27.90
2022-07-26T18:59:56.963Z,27.70
2022-07-26T19:02:44.138Z,27.70
2022-07-26T19:05:34.484Z,27.60
2022-07-26T19:08:20.771Z,27.50
2022-07-26T19:11:06.168Z,27.50
2022-07-26T19:13:51.703Z,27.40
2022-07-26T19:16:37.057Z,27.30
2022-07-26T19:19:22.605Z,27.20
2022-07-26T19:22:07.901Z,27.10
2022-07-26T19:24:53.175Z,27.10
2022-07-26T19:27:38.756Z,27.10
2022-07-26T19:30:25.122Z,26.90
2022-07-26T19:33:12.035Z,26.80
2022-07-26T19:35:58.951Z,26.60
2022-07-26T19:38:44.248Z,26.40
2022-07-26T19:41:30.113Z,26.20
2022-07-26T19:44:16.279Z,26.00
2022-07-26T19:47:01.576Z,25.80
2022-07-26T19:49:47.007Z,25.80
2022-07-26T19:52:32.346Z,25.70
2022-07-26T19:55:17.883Z,25.70
2022-07-26T19:58:03.434Z,25.70
2022-07-26T20:00:48.820Z,25.70
2022-07-26T20:03:34.351Z,25.70
2022-07-26T20:06:19.875Z,25.60
2022-07-26T20:09:05.528Z,25.70
2022-07-26T20:11:51.176Z,25.60
2022-07-26T20:14:36.351Z,25.40
2022-07-26T20:17:23.180Z,25.20
2022-07-26T20:20:10.008Z,25.10
2022-07-26T20:22:55.277Z,25.00
2022-07-26T20:25:40.823Z,24.90
2022-07-26T20:28:26.436Z,24.80
2022-07-26T20:31:11.905Z,24.80
2022-07-26T20:33:57.269Z,24.80
2022-07-26T20:36:42.912Z,24.60
2022-07-26T20:39:29.066Z,24.70
2022-07-26T20:42:21.656Z,24.70
2022-07-26T20:45:11.527Z,24.60
2022-07-26T20:47:58.492Z,24.50
2022-07-26T20:50:43.938Z,24.50
2022-07-26T20:53:29.311Z,24.50
2022-07-26T20:56:14.678Z,24.40
2022-07-26T20:59:02.202Z,24.30
2022-07-26T21:01:47.629Z,24.30
2022-07-26T21:04:33.214Z,24.30
2022-07-26T21:07:18.709Z,24.30
2022-07-26T21:10:06.420Z,24.30
2022-07-26T21:12:52.979Z,24.30
2022-07-26T21:15:38.350Z,24.20
2022-07-26T21:18:25.820Z,24.30
2022-07-26T21:21:11.071Z,24.20
2022-07-26T21:23:56.555Z,24.30
2022-07-26T21:26:42.129Z,24.20
2022-07-26T21:29:32.672Z,24.20
2022-07-26T21:32:29.602Z,24.20
2022-07-26T21:35:16.710Z,24.10
2022-07-26T21:38:02.059Z,24.00
2022-07-26T21:40:47.568Z,23.90
2022-07-26T21:43:33.019Z,23.90
2022-07-26T21:46:18.589Z,23.80
2022-07-26T21:49:05.026Z,23.80
2022-07-26T21:51:50.632Z,23.80
2022-07-26T21:54:36.091Z,23.80
2022-07-26T21:57:21.674Z,23.70
2022-07-26T22:00:07.635Z,23.60
2022-07-26T22:02:52.828Z,23.60
2022-07-26T22:05:38.158Z,23.70
2022-07-26T22:08:23.571Z,23.70
2022-07-26T22:11:09.098Z,23.60
2022-07-26T22:13:55.046Z,23.60
2022-07-26T22:16:40.231Z,23.60
2022-07-26T22:19:25.512Z,23.60
2022-07-26T22:22:10.963Z,23.50
2022-07-26T22:24:56.372Z,23.50
2022-07-26T22:27:41.665Z,23.40
2022-07-26T22:30:29.791Z,23.50
2022-07-26T22:33:15.228Z,23.40
2022-07-26T22:36:00.286Z,23.50
2022-07-26T22:38:46.382Z,23.40
2022-07-26T22:41:32.620Z,23.30
2022-07-26T22:44:19.347Z,23.20
2022-07-26T22:47:04.782Z,23.20
2022-07-26T22:49:50.373Z,23.20
2022-07-26T22:52:36.243Z,23.20
2022-07-26T22:55:21.557Z,23.20
2022-07-26T22:58:07.016Z,23.10
2022-07-26T23:00:52.354Z,23.20
2022-07-26T23:03:38.276Z,23.10
2022-07-26T23:06:32.030Z,23.10
2022-07-26T23:09:17.739Z,23.00
2022-07-26T23:12:03.256Z,22.90
2022-07-26T23:14:48.371Z,22.90
2022-07-26T23:17:34.042Z,22.80
2022-07-26T23:20:21.330Z,22.70
2022-07-26T23:23:06.632Z,22.70
2022-07-26T23:25:51.980Z,22.70
2022-07-26T23:28:38.654Z,22.60
2022-07-26T23:31:24.840Z,22.60
2022-07-26T23:34:10.274Z,22.50
2022-07-26T23:36:55.758Z,22.50
2022-07-26T23:39:41.252Z,22.50
2022-07-26T23:42:26.570Z,22.50
2022-07-26T23:45:12.078Z,22.50
2022-07-26T23:47:57.414Z,22.60
2022-07-26T23:50:42.928Z,22.60
2022-07-26T23:53:28.238Z,22.60
2022-07-26T23:56:13.636Z,22.60
2022-07-26T23:58:59.041Z,22.50
